Time;durP1;ratioP1;P1;durP2;ratioP2;P2;SDS_P1;SDS_P2;PMS_P1;PMS_P2;Temp;Humidity;BMP_temperature;BMP_pressure;BME280_temperature;BME280_humidity;BME280_pressure;Samples;Min_cycle;Max_cycle;Signal;HPM_P1;HPM_P2
2021/12/23 00:01:13;;;;;;;11.28;4.05;;;-2.70;70.80;;;;;;1905213;74;21116;-43
2021/12/23 00:03:42;;;;;;;8.48;3.00;;;-2.70;71.10;;;;;;1905214;74;21430;-43
2021/12/23 00:06:11;;;;;;;4.42;3.15;;;-2.70;72.50;;;;;;1905233;75;21011;-43
2021/12/23 00:08:41;;;;;;;5.87;3.67;;;-2.70;71.50;;;;;;1905241;75;21040;-43
2021/12/23 00:11:10;;;;;;;6.20;3.60;;;-2.70;72.20;;;;;;1905363;75;21023;-44
2021/12/23 00:13:48;;;;;;;6.15;3.30;;;-2.70;73.50;;;;;;1905234;74;21090;-43
2021/12/23 00:16:18;;;;;;;5.42;3.47;;;-2.60;73.50;;;;;;1904697;74;21023;-43
2021/12/23 00:18:45;;;;;;;4.00;3.42;;;-2.50;73.60;;;;;;1904624;74;21016;-43
2021/12/23 00:24:02;;;;;;;5.60;3.33;;;-2.40;73.10;;;;;;1924699;74;21046;-43
2021/12/23 00:26:31;;;;;;;7.85;4.45;;;-2.40;71.60;;;;;;1924623;74;21023;-43
2021/12/23 00:29:02;;;;;;;12.98;4.20;;;-2.40;71.60;;;;;;1924811;74;21050;-43
2021/12/23 00:31:32;;;;;;;4.95;3.37;;;-2.40;70.90;;;;;;1924624;74;21023;-43
2021/12/23 00:34:01;;;;;;;6.25;3.80;;;-2.40;72.10;;;;;;1924752;74;21078;-43
2021/12/23 00:36:30;;;;;;;4.47;3.22;;;-2.40;72.70;;;;;;1924743;74;21069;-44
2021/12/23 00:39:02;;;;;;;7.10;3.62;;;-2.40;72.00;;;;;;1924725;74;21019;-43
2021/12/23 00:41:31;;;;;;;4.92;3.27;;;-2.40;72.40;;;;;;1924692;74;21038;-43
2021/12/23 00:44:01;;;;;;;6.45;3.83;;;-2.40;72.80;;;;;;1924688;74;21097;-44
2021/12/23 00:46:30;;;;;;;5.58;3.70;;;-2.40;73.50;;;;;;1924670;74;21019;-43
2021/12/23 00:48:59;;;;;;;7.35;3.37;;;-2.30;73.80;;;;;;1924602;74;21019;-44
2021/12/23 00:51:29;;;;;;;8.85;3.58;;;-2.30;73.50;;;;;;1924598;74;21027;-43
2021/12/23 00:54:04;;;;;;;11.83;4.87;;;-2.20;72.80;;;;;;1924602;74;21022;-43
2021/12/23 00:56:29;;;;;;;11.68;3.77;;;-2.20;72.40;;;;;;1924199;74;21019;-43
2021/12/23 00:58:59;;;;;;;5.65;4.03;;;-2.20;73.60;;;;;;1924677;74;21022;-44
2021/12/23 01:01:28;;;;;;;4.72;3.70;;;-2.10;73.90;;;;;;1924734;74;21125;-44
2021/12/23 01:03:58;;;;;;;8.73;3.72;;;-2.10;73.00;;;;;;1924610;74;21038;-42
2021/12/23 01:06:27;;;;;;;8.88;4.95;;;-2.10;74.30;;;;;;1924673;74;21073;-43
2021/12/23 01:08:57;;;;;;;7.97;4.97;;;-2.00;74.40;;;;;;1924785;74;20994;-42
2021/12/23 01:11:27;;;;;;;8.58;4.67;;;-1.90;74.60;;;;;;1924545;74;21031;-43
2021/12/23 01:14:40;;;;;;;6.58;4.20;;;-1.80;74.90;;;;;;1924620;74;21022;-43
2021/12/23 01:16:49;;;;;;;10.23;4.47;;;-1.70;74.90;;;;;;1908022;74;21074;-43
2021/12/23 01:19:12;;;;;;;5.65;4.10;;;-1.70;74.40;;;;;;1923136;74;21018;-42
2021/12/23 01:21:39;;;;;;;7.25;4.03;;;-1.60;74.30;;;;;;1916713;74;21043;-43
2021/12/23 01:24:09;;;;;;;8.48;4.72;;;-1.60;74.20;;;;;;1905154;75;21082;-43
2021/12/23 01:26:40;;;;;;;6.70;4.15;;;-1.60;73.90;;;;;;1905206;75;21081;-43
2021/12/23 01:29:10;;;;;;;5.47;3.90;;;-1.60;74.50;;;;;;1905232;74;21019;-42
2021/12/23 01:31:39;;;;;;;9.25;4.58;;;-1.60;74.50;;;;;;1905207;74;21015;-43
2021/12/23 01:34:08;;;;;;;9.63;5.05;;;-1.50;74.90;;;;;;1905231;75;21035;-43
2021/12/23 01:36:38;;;;;;;6.45;4.08;;;-1.50;75.20;;;;;;1905175;75;21016;-43
2021/12/23 01:39:07;;;;;;;7.50;5.35;;;-1.40;73.00;;;;;;1905183;75;20999;-43
2021/12/23 01:41:36;;;;;;;10.18;5.55;;;-1.50;71.50;;;;;;1905300;75;21061;-43
2021/12/23 01:44:06;;;;;;;11.30;5.92;;;-1.80;71.30;;;;;;1905293;75;21035;-43
2021/12/23 01:46:36;;;;;;;8.65;6.00;;;-2.10;70.70;;;;;;1905259;75;21028;-43
2021/12/23 01:49:05;;;;;;;7.33;4.80;;;-2.30;72.00;;;;;;1905321;75;21063;-43
2021/12/23 01:51:34;;;;;;;6.92;4.00;;;-2.60;72.20;;;;;;1905294;74;21062;-42
2021/12/23 01:54:04;;;;;;;5.35;4.03;;;-2.60;74.80;;;;;;1905339;75;21144;-42
2021/12/23 01:56:34;;;;;;;7.17;4.22;;;-2.50;75.40;;;;;;1905190;75;21067;-44
2021/12/23 01:59:03;;;;;;;8.73;4.80;;;-2.40;74.80;;;;;;1905174;75;21062;-43
2021/12/23 02:01:33;;;;;;;5.65;4.00;;;-2.30;75.10;;;;;;1905290;75;21012;-42
2021/12/23 02:04:02;;;;;;;6.90;3.95;;;-2.10;75.40;;;;;;1905198;75;21019;-44
2021/12/23 02:06:31;;;;;;;5.65;3.83;;;-2.00;73.20;;;;;;1905159;75;21103;-43
2021/12/23 02:09:00;;;;;;;6.67;3.45;;;-1.90;73.00;;;;;;1905311;75;21027;-43
2021/12/23 02:11:30;;;;;;;7.50;4.35;;;-1.90;70.70;;;;;;1905286;75;21027;-44
2021/12/23 02:13:59;;;;;;;5.60;4.25;;;-1.90;69.80;;;;;;1905272;75;21027;-43
2021/12/23 02:16:29;;;;;;;8.13;3.70;;;-1.90;71.00;;;;;;1905297;75;21075;-43
2021/12/23 02:18:58;;;;;;;4.65;3.50;;;-2.00;69.50;;;;;;1905281;75;21003;-43
2021/12/23 02:21:28;;;;;;;3.27;2.62;;;-2.00;68.00;;;;;;1906334;74;21023;-43
2021/12/23 02:23:57;;;;;;;5.55;2.33;;;-2.00;69.80;;;;;;1924693;74;21080;-43
2021/12/23 02:26:26;;;;;;;8.23;4.08;;;-2.00;67.60;;;;;;1924579;74;21022;-43
2021/12/23 02:28:56;;;;;;;7.25;4.37;;;-2.00;69.80;;;;;;1924592;74;21086;-43
2021/12/23 02:31:25;;;;;;;7.72;4.45;;;-2.00;68.80;;;;;;1924570;74;21140;-42
2021/12/23 02:33:55;;;;;;;5.05;3.47;;;-2.00;69.70;;;;;;1924599;74;21148;-43
2021/12/23 02:36:26;;;;;;;7.00;3.40;;;-2.00;68.70;;;;;;1924600;74;21085;-43
2021/12/23 02:38:55;;;;;;;10.90;4.55;;;-2.00;68.90;;;;;;1924577;74;21119;-43
2021/12/23 02:41:24;;;;;;;5.45;3.67;;;-2.00;70.00;;;;;;1924764;74;21018;-43
2021/12/23 02:43:53;;;;;;;5.72;4.15;;;-2.00;68.70;;;;;;1924579;74;21014;-43
2021/12/23 02:46:24;;;;;;;5.85;3.50;;;-1.90;69.80;;;;;;1924665;74;21449;-44
2021/12/23 02:48:53;;;;;;;7.00;4.22;;;-1.90;70.70;;;;;;1924711;74;21026;-41
2021/12/23 02:51:22;;;;;;;6.55;3.65;;;-1.90;69.50;;;;;;1924575;74;21022;-43
2021/12/23 02:53:52;;;;;;;4.65;2.55;;;-1.90;70.90;;;;;;1924675;74;21129;-44
2021/12/23 02:56:21;;;;;;;11.33;4.45;;;-1.80;69.90;;;;;;1924644;74;21082;-43
2021/12/23 02:58:50;;;;;;;8.63;4.55;;;-1.80;69.40;;;;;;1924547;74;21092;-43
2021/12/23 03:01:21;;;;;;;6.65;4.65;;;-1.80;70.00;;;;;;1924663;74;21018;-43
2021/12/23 03:03:51;;;;;;;11.18;4.33;;;-1.80;70.10;;;;;;1924658;74;21089;-43
2021/12/23 03:06:22;;;;;;;5.67;3.77;;;-1.80;70.40;;;;;;1924622;74;21022;-43
2021/12/23 03:08:56;;;;;;;4.65;3.40;;;-1.80;70.60;;;;;;1924678;74;21452;-43
2021/12/23 03:11:27;;;;;;;4.80;3.98;;;-1.80;69.60;;;;;;1924903;74;21468;-43
2021/12/23 03:13:58;;;;;;;9.03;4.45;;;-1.80;69.90;;;;;;1924733;74;21002;-44
2021/12/23 03:16:32;;;;;;;8.30;5.12;;;-1.80;69.90;;;;;;1924671;74;21018;-43
2021/12/23 03:19:01;;;;;;;5.53;3.62;;;-1.80;69.40;;;;;;1924916;74;21035;-44
2021/12/23 03:21:30;;;;;;;4.55;3.10;;;-1.90;69.10;;;;;;1924677;74;21047;-42
2021/12/23 03:24:01;;;;;;;6.08;4.28;;;-1.90;68.90;;;;;;1924629;74;21027;-43
2021/12/23 03:26:30;;;;;;;3.87;2.08;;;-1.90;69.70;;;;;;1924608;74;21035;-43
2021/12/23 03:29:00;;;;;;;8.10;3.95;;;-1.90;69.60;;;;;;1924615;74;21097;-43
2021/12/23 03:31:29;;;;;;;4.50;3.70;;;-2.00;69.70;;;;;;1924522;74;21078;-44
2021/12/23 03:33:58;;;;;;;5.85;4.28;;;-2.00;70.10;;;;;;1924604;74;21107;-43
2021/12/23 03:36:28;;;;;;;4.05;3.20;;;-2.00;68.80;;;;;;1924525;74;21022;-44
2021/12/23 03:38:57;;;;;;;7.35;4.00;;;-2.00;68.60;;;;;;1924457;74;21015;-43
2021/12/23 03:41:26;;;;;;;4.78;3.50;;;-2.00;69.10;;;;;;1924553;74;21023;-42
2021/12/23 03:43:55;;;;;;;7.75;4.20;;;-2.00;69.60;;;;;;1924538;74;21050;-43
2021/12/23 03:46:25;;;;;;;7.40;4.47;;;-1.90;69.50;;;;;;1924627;74;21394;-43
2021/12/23 03:48:54;;;;;;;10.65;6.15;;;-1.90;69.90;;;;;;1924718;74;21019;-44
2021/12/23 03:51:24;;;;;;;15.63;6.28;;;-1.90;70.30;;;;;;1924681;74;21022;-42
2021/12/23 03:53:53;;;;;;;11.97;5.78;;;-1.90;70.40;;;;;;1924728;74;21023;-43
2021/12/23 03:56:22;;;;;;;7.12;5.20;;;-1.90;70.60;;;;;;1924673;74;21083;-42
2021/12/23 03:58:54;;;;;;;8.05;4.83;;;-1.80;69.20;;;;;;1924622;74;21079;-43
2021/12/23 04:01:24;;;;;;;18.98;4.45;;;-1.80;69.80;;;;;;1924624;74;21104;-42
2021/12/23 04:03:54;;;;;;;9.88;5.50;;;-1.80;70.20;;;;;;1924590;74;21026;-43
2021/12/23 04:06:25;;;;;;;11.80;6.45;;;-1.80;70.30;;;;;;1924572;74;21027;-43
2021/12/23 04:08:54;;;;;;;2.55;2.40;;;-1.80;69.50;;;;;;1924554;74;21096;-42
2021/12/23 04:11:24;;;;;;;10.63;4.65;;;-1.90;68.70;;;;;;1924583;74;21026;-43
2021/12/23 04:13:54;;;;;;;8.23;4.65;;;-1.80;69.50;;;;;;1924643;74;21015;-43
2021/12/23 04:16:24;;;;;;;25.97;13.53;;;-1.80;70.40;;;;;;1924546;74;21018;-43
2021/12/23 04:18:54;;;;;;;11.53;6.05;;;-1.90;69.40;;;;;;1924597;74;21092;-43
2021/12/23 04:21:24;;;;;;;15.83;7.70;;;-1.80;70.00;;;;;;1924539;74;21062;-43
2021/12/23 04:23:53;;;;;;;11.10;5.85;;;-1.80;67.40;;;;;;1924591;74;21104;-43
2021/12/23 04:26:22;;;;;;;13.55;5.28;;;-1.90;67.00;;;;;;1924587;74;21018;-44
2021/12/23 04:28:52;;;;;;;8.70;5.70;;;-1.90;66.90;;;;;;1924722;74;21084;-43
2021/12/23 04:31:23;;;;;;;3.50;2.25;;;-1.90;67.00;;;;;;1924618;74;21035;-42
2021/12/23 04:33:54;;;;;;;5.75;4.00;;;-2.00;66.40;;;;;;1924713;74;20995;-43
2021/12/23 04:36:29;;;;;;;9.55;4.20;;;-2.00;67.40;;;;;;1924726;74;21109;-43
2021/12/23 04:39:01;;;;;;;15.55;5.08;;;-2.10;66.90;;;;;;1924845;74;20990;-43
2021/12/23 04:41:31;;;;;;;10.58;5.28;;;-2.10;67.40;;;;;;1924802;74;21031;-43
2021/12/23 04:44:01;;;;;;;7.90;4.40;;;-2.20;67.70;;;;;;1924737;74;21066;-43
2021/12/23 04:46:30;;;;;;;5.72;2.35;;;-2.20;68.00;;;;;;1924860;74;21120;-43
2021/12/23 04:49:00;;;;;;;6.10;4.78;;;-2.20;68.50;;;;;;1924823;74;21047;-44
2021/12/23 04:51:29;;;;;;;7.35;4.50;;;-2.20;67.90;;;;;;1924696;74;21042;-45
2021/12/23 04:53:58;;;;;;;2.45;1.70;;;-2.20;68.80;;;;;;1924820;74;21022;-45
2021/12/23 04:56:28;;;;;;;5.92;4.17;;;-2.30;68.40;;;;;;1924825;74;21027;-45
2021/12/23 04:58:57;;;;;;;8.15;4.17;;;-2.30;68.80;;;;;;1924817;74;21116;-44
2021/12/23 05:01:32;;;;;;;6.25;3.47;;;-2.30;69.20;;;;;;1924766;74;21062;-45
2021/12/23 05:03:57;;;;;;;11.45;7.08;;;-2.30;69.60;;;;;;1922939;74;21031;-44
2021/12/23 05:06:27;;;;;;;4.95;3.00;;;-2.40;70.00;;;;;;1925000;74;21018;-44
2021/12/23 05:08:57;;;;;;;8.65;6.42;;;-2.40;70.40;;;;;;1924798;74;21123;-44
2021/12/23 05:11:25;;;;;;;6.80;4.95;;;-2.40;70.50;;;;;;1924851;74;21003;-44
2021/12/23 05:13:55;;;;;;;17.15;8.38;;;-2.40;70.70;;;;;;1924928;74;21429;-44
2021/12/23 05:16:24;;;;;;;8.28;5.75;;;-2.40;70.90;;;;;;1924732;74;21014;-44
2021/12/23 05:18:54;;;;;;;8.48;4.42;;;-2.40;71.00;;;;;;1924732;74;21019;-43
2021/12/23 05:21:23;;;;;;;5.92;5.25;;;-2.40;71.30;;;;;;1924792;74;21481;-44
2021/12/23 05:23:52;;;;;;;5.80;5.08;;;-2.50;71.70;;;;;;1924693;74;21051;-45
2021/12/23 05:26:22;;;;;;;5.25;3.80;;;-2.50;71.50;;;;;;1924797;74;21026;-44
2021/12/23 05:28:51;;;;;;;7.65;4.70;;;-2.60;71.70;;;;;;1924760;74;21022;-44
2021/12/23 05:31:20;;;;;;;10.45;3.22;;;-2.60;71.60;;;;;;1924869;74;21011;-45
2021/12/23 05:33:50;;;;;;;9.10;5.92;;;-2.60;71.70;;;;;;1924768;74;21035;-44
2021/12/23 05:36:19;;;;;;;13.13;6.35;;;-2.70;71.80;;;;;;1924759;74;20999;-45
2021/12/23 05:38:49;;;;;;;3.98;3.58;;;-2.70;71.90;;;;;;1924820;74;21019;-44
2021/12/23 05:41:18;;;;;;;7.12;5.28;;;-2.70;72.40;;;;;;1924662;74;21076;-44
2021/12/23 05:43:47;;;;;;;6.28;5.62;;;-2.70;72.70;;;;;;1924924;74;21080;-43
2021/12/23 05:46:17;;;;;;;6.55;5.20;;;-2.70;72.10;;;;;;1924747;74;21092;-45
2021/12/23 05:48:46;;;;;;;16.57;6.62;;;-2.70;72.40;;;;;;1924727;74;21116;-45
2021/12/23 05:51:15;;;;;;;11.10;6.70;;;-2.70;72.70;;;;;;1924785;74;21089;-45
2021/12/23 05:53:45;;;;;;;3.12;2.33;;;-2.70;72.60;;;;;;1924717;74;21042;-44
2021/12/23 05:56:14;;;;;;;6.95;3.98;;;-2.60;73.10;;;;;;1924752;74;21080;-44
2021/12/23 05:58:43;;;;;;;15.23;5.87;;;-2.50;72.30;;;;;;1924634;74;21019;-44
2021/12/23 06:01:13;;;;;;;6.40;4.33;;;-2.50;73.00;;;;;;1924643;74;21018;-44
2021/12/23 06:03:46;;;;;;;5.25;3.92;;;-2.50;73.50;;;;;;1924763;74;21449;-44
2021/12/23 06:06:13;;;;;;;5.83;4.15;;;-2.40;72.80;;;;;;1924478;74;21038;-44
2021/12/23 06:08:43;;;;;;;4.65;3.47;;;-2.40;72.40;;;;;;1924785;74;20998;-44
2021/12/23 06:11:12;;;;;;;6.75;3.65;;;-2.40;71.80;;;;;;1924695;74;21015;-44
2021/12/23 06:13:42;;;;;;;9.63;5.20;;;-2.40;72.80;;;;;;1924678;74;21104;-47
2021/12/23 06:16:11;;;;;;;10.50;5.25;;;-2.40;73.10;;;;;;1924705;74;21023;-44
2021/12/23 06:18:41;;;;;;;6.65;4.75;;;-2.30;74.60;;;;;;1924700;74;20995;-44
2021/12/23 06:21:10;;;;;;;5.33;4.33;;;-2.30;74.10;;;;;;1924636;74;21014;-43
2021/12/23 06:23:39;;;;;;;6.65;4.87;;;-2.20;72.20;;;;;;1924712;74;21143;-43
2021/12/23 06:26:09;;;;;;;7.50;5.03;;;-2.20;71.30;;;;;;1924497;74;21043;-44
2021/12/23 06:28:38;;;;;;;20.43;15.03;;;-2.30;72.20;;;;;;1924762;74;20995;-44
2021/12/23 06:31:08;;;;;;;8.30;4.08;;;-2.30;72.80;;;;;;1924682;74;21019;-44
2021/12/23 06:33:38;;;;;;;4.80;3.77;;;-2.30;73.00;;;;;;1924727;74;21019;-44
2021/12/23 06:36:07;;;;;;;7.08;4.53;;;-2.30;72.70;;;;;;1924808;74;21062;-44
2021/12/23 06:38:36;;;;;;;5.42;3.70;;;-2.40;72.20;;;;;;1924663;74;21054;-44
2021/12/23 06:41:06;;;;;;;5.28;3.30;;;-2.40;72.20;;;;;;1924744;74;21050;-44
2021/12/23 06:43:35;;;;;;;5.53;3.67;;;-2.50;70.30;;;;;;1924903;74;21018;-44
2021/12/23 06:46:04;;;;;;;4.22;2.83;;;-2.50;71.80;;;;;;1924725;74;21015;-45
2021/12/23 06:48:34;;;;;;;7.33;4.15;;;-2.50;71.00;;;;;;1924805;74;21105;-44
2021/12/23 06:51:04;;;;;;;7.90;4.10;;;-2.50;71.70;;;;;;1924803;74;21019;-44
2021/12/23 06:53:34;;;;;;;4.75;3.10;;;-2.50;71.40;;;;;;1924788;74;21092;-44
2021/12/23 06:56:03;;;;;;;6.00;3.62;;;-2.60;70.70;;;;;;1924814;74;21026;-43
2021/12/23 06:58:33;;;;;;;6.75;3.77;;;-2.60;71.50;;;;;;1924703;74;21058;-44
2021/12/23 07:01:02;;;;;;;4.45;3.45;;;-2.60;71.20;;;;;;1924596;74;21081;-45
2021/12/23 07:03:53;;;;;;;5.70;3.02;;;-2.60;70.90;;;;;;1924670;74;21076;-45
2021/12/23 07:06:06;;;;;;;3.60;2.77;;;-2.60;71.70;;;;;;1920225;74;21054;-42
2021/12/23 07:08:36;;;;;;;12.10;4.47;;;-2.60;71.90;;;;;;1923638;74;21117;-43
2021/12/23 07:11:05;;;;;;;6.22;4.45;;;-2.50;70.90;;;;;;1923954;73;21096;-42
2021/12/23 07:13:34;;;;;;;5.00;2.50;;;-2.50;71.10;;;;;;1923797;74;21023;-42
2021/12/23 07:16:04;;;;;;;4.67;3.15;;;-2.50;71.00;;;;;;1924049;74;21015;-42
2021/12/23 07:18:33;;;;;;;4.80;3.45;;;-2.40;71.80;;;;;;1924098;74;21069;-44
2021/12/23 07:21:03;;;;;;;4.12;3.72;;;-2.40;71.40;;;;;;1923829;74;21022;-43
2021/12/23 07:23:32;;;;;;;10.45;6.40;;;-2.30;70.20;;;;;;1919855;74;21065;-43
2021/12/23 07:26:02;;;;;;;16.20;10.53;;;-2.30;69.40;;;;;;1910386;75;21108;-41
2021/12/23 07:28:31;;;;;;;3.50;3.20;;;-2.30;70.40;;;;;;1905113;75;21002;-42
2021/12/23 07:31:01;;;;;;;3.02;2.47;;;-2.20;69.70;;;;;;1905111;75;21676;-42
2021/12/23 07:33:30;;;;;;;4.12;3.80;;;-2.30;67.80;;;;;;1905183;75;21107;-41
2021/12/23 07:36:00;;;;;;;3.02;2.60;;;-2.20;69.20;;;;;;1904950;75;21097;-42
2021/12/23 07:38:29;;;;;;;3.10;2.83;;;-2.20;69.90;;;;;;1905225;75;21124;-42
2021/12/23 07:40:58;;;;;;;2.83;2.40;;;-2.20;68.60;;;;;;1904970;75;21093;-41
2021/12/23 07:43:54;;;;;;;7.97;2.25;;;-2.20;67.90;;;;;;1904910;74;21085;-42
2021/12/23 07:46:04;;;;;;;1.50;1.40;;;-2.10;69.70;;;;;;1901551;75;21101;-44
2021/12/23 07:48:34;;;;;;;4.53;2.00;;;-2.00;68.90;;;;;;1905010;75;21069;-42
2021/12/23 07:51:04;;;;;;;3.45;2.65;;;-2.00;68.60;;;;;;1904979;75;21034;-42
2021/12/23 07:53:34;;;;;;;6.72;4.15;;;-2.00;69.20;;;;;;1905229;75;21034;-42
2021/12/23 07:56:03;;;;;;;3.47;2.67;;;-2.00;67.60;;;;;;1905113;75;21096;-42
2021/12/23 07:58:33;;;;;;;5.37;3.27;;;-1.90;67.00;;;;;;1905288;75;21527;-42
2021/12/23 08:01:02;;;;;;;4.90;3.35;;;-1.90;66.10;;;;;;1905348;75;21010;-42
2021/12/23 08:03:31;;;;;;;3.50;1.90;;;-1.90;66.80;;;;;;1905320;75;21664;-43
2021/12/23 08:06:01;;;;;;;26.90;15.80;;;-1.80;64.80;;;;;;1905075;74;21150;-43
2021/12/23 08:08:30;;;;;;;11.33;6.97;;;-1.80;66.10;;;;;;1905260;75;21022;-42
2021/12/23 08:11:01;;;;;;;6.20;3.25;;;-1.80;64.60;;;;;;1905268;75;21159;-42
2021/12/23 08:13:31;;;;;;;2.72;2.47;;;-1.80;64.30;;;;;;1905182;74;21030;-42
2021/12/23 08:16:01;;;;;;;3.17;2.60;;;-1.80;63.40;;;;;;1905386;75;21050;-43
2021/12/23 08:18:31;;;;;;;13.80;2.12;;;-1.80;63.10;;;;;;1905255;75;21086;-42
2021/12/23 08:21:02;;;;;;;2.30;1.80;;;-1.70;63.60;;;;;;1905202;75;21026;-43
2021/12/23 08:23:31;;;;;;;2.67;2.47;;;-1.80;63.30;;;;;;1905206;75;21023;-43
2021/12/23 08:26:03;;;;;;;9.35;3.45;;;-1.80;64.90;;;;;;1905183;75;21151;-42
2021/12/23 08:28:32;;;;;;;1.90;1.80;;;-1.70;65.40;;;;;;1905032;74;21022;-42
2021/12/23 08:31:01;;;;;;;10.80;2.55;;;-1.70;62.50;;;;;;1905219;75;21050;-44
2021/12/23 08:33:30;;;;;;;9.88;5.25;;;-1.70;63.80;;;;;;1905344;75;21147;-42
2021/12/23 08:36:00;;;;;;;6.33;4.22;;;-1.60;64.90;;;;;;1905192;74;22096;-44
2021/12/23 08:38:29;;;;;;;7.92;4.40;;;-1.60;67.20;;;;;;1905270;74;21136;-42
2021/12/23 08:40:59;;;;;;;8.43;4.10;;;-1.50;68.60;;;;;;1905359;74;21062;-42
2021/12/23 08:43:28;;;;;;;6.95;4.17;;;-1.60;68.90;;;;;;1905225;75;21043;-42
2021/12/23 08:45:58;;;;;;;5.85;4.05;;;-1.70;69.60;;;;;;1905112;75;21082;-43
2021/12/23 08:48:27;;;;;;;14.43;4.25;;;-1.80;69.40;;;;;;1905472;75;21069;-43
2021/12/23 08:50:56;;;;;;;8.08;2.98;;;-1.80;70.20;;;;;;1901548;74;21100;-42
2021/12/23 08:53:26;;;;;;;4.47;2.67;;;-1.90;70.50;;;;;;1872199;76;21100;-42
2021/12/23 08:55:55;;;;;;;5.90;4.37;;;-1.90;70.80;;;;;;1872320;77;21023;-43
2021/12/23 08:58:24;;;;;;;5.95;3.47;;;-2.00;71.40;;;;;;1872165;76;21578;-41
2021/12/23 09:00:53;;;;;;;4.30;2.20;;;-2.00;70.70;;;;;;1872276;76;21071;-42
2021/12/23 09:03:23;;;;;;;6.92;3.00;;;-2.00;71.40;;;;;;1872281;76;21031;-43
2021/12/23 09:05:52;;;;;;;3.45;2.90;;;-2.00;71.80;;;;;;1872017;77;21019;-42
2021/12/23 09:08:21;;;;;;;5.10;2.90;;;-1.90;71.20;;;;;;1872163;76;21102;-41
2021/12/23 09:10:51;;;;;;;5.25;3.20;;;-1.90;71.00;;;;;;1872333;77;21078;-42
2021/12/23 09:13:20;;;;;;;7.75;5.72;;;-2.00;71.50;;;;;;1872050;77;21500;-43
2021/12/23 09:15:51;;;;;;;8.05;5.17;;;-2.00;71.30;;;;;;1872208;75;21216;-41
2021/12/23 09:18:21;;;;;;;5.78;4.47;;;-2.00;71.80;;;;;;1872333;77;21073;-42
2021/12/23 09:20:52;;;;;;;2.65;2.37;;;-2.00;71.20;;;;;;1872098;77;21023;-41
2021/12/23 09:23:21;;;;;;;3.02;2.72;;;-2.00;71.30;;;;;;1872132;76;21035;-43
2021/12/23 09:25:53;;;;;;;3.50;2.92;;;-2.00;71.10;;;;;;1871898;76;21090;-44
2021/12/23 09:28:41;;;;;;;6.30;3.27;;;-2.00;71.50;;;;;;1872085;77;21034;-42
2021/12/23 09:33:51;;;;;;;3.02;2.08;;;-2.00;70.00;;;;;;1872095;77;21180;-43
2021/12/23 09:36:20;;;;;;;4.62;3.72;;;-1.90;70.80;;;;;;1872218;75;21144;-42
2021/12/23 09:38:49;;;;;;;8.30;3.92;;;-1.80;71.40;;;;;;1872245;77;21090;-42
2021/12/23 09:41:21;;;;;;;7.65;4.15;;;-1.70;71.00;;;;;;1872323;75;21070;-42
2021/12/23 09:43:51;;;;;;;4.30;3.10;;;-1.70;70.80;;;;;;1872279;75;21031;-43
2021/12/23 09:46:22;;;;;;;6.80;4.03;;;-1.70;70.50;;;;;;1872134;76;21035;-44
2021/12/23 09:48:52;;;;;;;8.98;4.60;;;-1.60;70.40;;;;;;1872431;75;21069;-42
2021/12/23 09:51:24;;;;;;;3.90;3.12;;;-1.60;70.80;;;;;;1872222;77;21031;-43
2021/12/23 09:53:59;;;;;;;4.53;2.95;;;-1.60;71.10;;;;;;1872360;77;21450;-43
2021/12/23 09:56:32;;;;;;;3.37;3.08;;;-1.60;70.50;;;;;;1872278;76;21504;-42
2021/12/23 09:59:05;;;;;;;6.62;3.67;;;-1.60;70.80;;;;;;1872196;77;21101;-42
2021/12/23 10:01:34;;;;;;;7.37;4.22;;;-1.60;70.30;;;;;;1872084;76;21054;-43
2021/12/23 10:04:04;;;;;;;8.53;3.77;;;-1.60;70.60;;;;;;1872052;76;21066;-42
2021/12/23 10:06:34;;;;;;;5.42;4.10;;;-1.60;71.10;;;;;;1872009;77;21093;-44
2021/12/23 10:09:04;;;;;;;7.40;3.47;;;-1.50;70.60;;;;;;1872549;75;21028;-43
2021/12/23 10:30:11;;;;;;;2.55;1.98;;;-1.80;71.60;;;;;;1892244;75;21113;-44
2021/12/23 10:31:19;;;;;;;6.65;3.42;;;-1.80;71.30;;;;;;1869733;75;21011;-44
2021/12/23 10:33:47;;;;;;;7.62;4.47;;;-1.90;71.10;;;;;;1884226;75;21060;-44
2021/12/23 10:38:43;;;;;;;4.25;3.10;;;-2.00;72.40;;;;;;1886595;75;21077;-41
2021/12/23 10:41:14;;;;;;;6.58;4.35;;;-2.00;72.20;;;;;;1886401;75;21073;-42
2021/12/23 10:43:46;;;;;;;4.70;4.10;;;-2.00;72.40;;;;;;1888000;75;21051;-42
2021/12/23 10:46:21;;;;;;;4.25;3.25;;;-1.90;72.50;;;;;;1890877;74;21489;-44
2021/12/23 10:52:04;;;;;;;3.35;2.12;;;-1.60;72.50;;;;;;1872110;77;21085;-41
2021/12/23 11:00:27;;;;;;;7.50;3.52;;;-1.60;70.80;;;;;;1943524;74;21038;-44
2021/12/23 11:03:11;;;;;;;5.92;4.20;;;-1.50;71.00;;;;;;1947992;74;21433;-44
2021/12/23 11:05:47;;;;;;;5.33;2.77;;;-1.40;70.30;;;;;;1947764;73;21070;-43
2021/12/23 11:08:27;;;;;;;6.00;4.25;;;-1.50;70.30;;;;;;1923307;74;21075;-44
2021/12/23 11:28:05;;;;;;;4.37;3.47;;;-1.30;70.20;;;;;;1854585;77;21555;-43
2021/12/23 11:38:39;;;;;;;5.42;3.92;;;-1.30;68.90;;;;;;1887190;76;21090;-43
2021/12/23 11:41:19;;;;;;;4.50;3.50;;;-1.40;69.20;;;;;;1886425;75;21090;-42
2021/12/23 11:43:49;;;;;;;3.45;3.10;;;-1.40;69.10;;;;;;1885498;75;21104;-43
2021/12/23 11:46:22;;;;;;;5.00;3.27;;;-1.40;69.80;;;;;;1887007;74;20998;-44
2021/12/23 11:48:54;;;;;;;9.85;4.87;;;-1.50;70.10;;;;;;1887167;76;21531;-43
2021/12/23 11:51:34;;;;;;;3.98;2.87;;;-1.40;70.00;;;;;;1887247;76;21456;-44
2021/12/23 11:54:04;;;;;;;8.13;4.70;;;-1.50;70.10;;;;;;1886959;75;21473;-43
2021/12/23 11:56:35;;;;;;;4.28;3.10;;;-1.50;69.50;;;;;;1887065;75;21503;-43
2021/12/23 11:59:05;;;;;;;8.15;5.50;;;-1.50;68.90;;;;;;1891583;74;21143;-43
2021/12/23 12:01:43;;;;;;;3.02;2.72;;;-1.50;70.90;;;;;;1895187;75;21065;-42
2021/12/23 12:04:15;;;;;;;7.37;4.55;;;-1.50;70.70;;;;;;1877934;75;21050;-44
2021/12/23 12:06:46;;;;;;;5.75;2.72;;;-1.50;69.80;;;;;;1871670;76;21542;-42
2021/12/23 12:09:22;;;;;;;4.37;3.50;;;-1.50;69.80;;;;;;1872484;75;21131;-42
2021/12/23 12:12:06;;;;;;;5.22;4.55;;;-1.50;69.60;;;;;;1884167;75;21030;-44
2021/12/23 12:14:41;;;;;;;8.75;5.05;;;-1.50;70.40;;;;;;1887249;75;21030;-42
2021/12/23 12:17:33;;;;;;;5.60;4.40;;;-1.50;71.80;;;;;;1887202;75;21108;-42
2021/12/23 12:20:20;;;;;;;11.43;4.22;;;-1.30;71.40;;;;;;1886890;75;21155;-43
2021/12/23 12:23:13;;;;;;;7.15;3.60;;;-1.20;71.50;;;;;;1886377;74;21172;-40
2021/12/23 12:25:45;;;;;;;5.95;3.92;;;-1.00;70.80;;;;;;1885766;75;21153;-41
2021/12/23 12:28:18;;;;;;;8.78;5.00;;;-1.00;68.90;;;;;;1894786;74;21137;-41
2021/12/23 12:30:56;;;;;;;5.85;3.22;;;-1.00;69.00;;;;;;1902609;75;21104;-40
2021/12/23 12:33:28;;;;;;;12.33;2.60;;;-1.00;70.10;;;;;;1881536;76;21039;-40
2021/12/23 12:36:03;;;;;;;4.67;3.47;;;-1.10;67.40;;;;;;1903160;75;21015;-40
2021/12/23 12:38:40;;;;;;;8.65;4.50;;;-1.20;66.10;;;;;;1903795;75;21014;-42
2021/12/23 12:41:18;;;;;;;2.70;2.33;;;-1.40;67.00;;;;;;1893694;75;21492;-42
2021/12/23 12:43:57;;;;;;;5.50;3.77;;;-1.60;65.90;;;;;;1893454;75;21423;-43
2021/12/23 12:46:39;;;;;;;3.67;3.37;;;-1.70;68.90;;;;;;1911177;74;21015;-43
2021/12/23 12:49:23;;;;;;;4.62;3.17;;;-1.70;67.20;;;;;;1901248;74;21082;-43
2021/12/23 12:51:49;;;;;;;2.42;2.12;;;-1.90;66.70;;;;;;1904412;75;21105;-43
2021/12/23 12:54:30;;;;;;;2.87;2.47;;;-2.00;66.00;;;;;;1884399;75;21040;-43
2021/12/23 12:56:55;;;;;;;5.35;3.02;;;-2.10;66.30;;;;;;1887630;75;21093;-42
2021/12/23 12:59:28;;;;;;;5.30;4.15;;;-2.10;68.30;;;;;;1899040;75;21105;-43
2021/12/23 13:01:59;;;;;;;6.10;4.12;;;-2.20;69.20;;;;;;1890740;75;21023;-42
2021/12/23 13:04:43;;;;;;;7.12;3.35;;;-2.10;69.60;;;;;;1890178;75;21141;-43
2021/12/23 13:07:16;;;;;;;10.15;6.00;;;-2.10;69.10;;;;;;1911374;74;21107;-43
2021/12/23 13:09:59;;;;;;;4.92;4.05;;;-2.10;70.30;;;;;;1911097;75;21110;-43
2021/12/23 13:12:49;;;;;;;5.62;3.92;;;-2.00;68.40;;;;;;1903722;75;21144;-43
2021/12/23 13:15:31;;;;;;;5.90;4.15;;;-2.00;70.70;;;;;;1888383;75;21168;-43
2021/12/23 13:18:10;;;;;;;8.35;4.53;;;-1.80;71.40;;;;;;1887893;75;21126;-43
2021/12/23 13:20:42;;;;;;;8.20;5.33;;;-1.70;70.70;;;;;;1898482;75;21085;-43
2021/12/23 13:23:32;;;;;;;12.60;5.22;;;-1.60;70.80;;;;;;1886129;75;21043;-42
2021/12/23 13:26:03;;;;;;;16.35;5.45;;;-1.60;69.90;;;;;;1887173;75;21207;-41
2021/12/23 13:28:36;;;;;;;12.25;5.00;;;-1.60;69.60;;;;;;1875977;76;21123;-41
2021/12/23 13:31:11;;;;;;;6.78;4.17;;;-1.60;68.80;;;;;;1909210;74;21034;-41
2021/12/23 13:33:53;;;;;;;7.85;4.62;;;-1.70;69.40;;;;;;1923312;74;21140;-43
2021/12/23 13:36:31;;;;;;;8.03;5.50;;;-1.70;70.70;;;;;;1924829;73;21026;-42
2021/12/23 13:39:06;;;;;;;10.50;4.45;;;-1.50;71.50;;;;;;1919732;74;21124;-42
2021/12/23 13:41:37;;;;;;;4.17;3.77;;;-1.30;68.60;;;;;;1815504;78;21436;-41
2021/12/23 13:44:24;;;;;;;7.67;5.60;;;-1.20;69.30;;;;;;1891936;75;21093;-42
2021/12/23 13:47:11;;;;;;;10.50;5.08;;;-1.30;68.70;;;;;;1816351;79;21158;-42
2021/12/23 13:49:46;;;;;;;11.85;5.47;;;-1.50;68.50;;;;;;1893291;74;21073;-43
2021/12/23 13:52:28;;;;;;;7.78;5.33;;;-1.60;69.80;;;;;;1817339;78;21030;-42
2021/12/23 13:54:59;;;;;;;8.08;5.20;;;-1.60;70.50;;;;;;1894318;75;21041;-42
2021/12/23 13:57:31;;;;;;;8.88;5.35;;;-1.60;67.70;;;;;;1817626;77;21050;-43
2021/12/23 14:00:01;;;;;;;9.58;5.50;;;-1.70;69.80;;;;;;1894448;76;21167;-42
2021/12/23 14:02:32;;;;;;;10.18;7.35;;;-1.80;69.60;;;;;;1815378;78;21024;-42
2021/12/23 14:05:03;;;;;;;8.60;5.65;;;-1.80;70.50;;;;;;1894400;74;21095;-41